Timeline UpdatesTrip UpdatesNews PostsPvt PostsTravel TipsAdmin PostsConv PostsFollowed PostsChat RequestsBlog PostsPNR Posts

Disclaimer
Search
 
 
Thu Aug 28, 2014 14:35:39 ISTHomeTrainsΣChainsAtlasPNRForumGalleryNewsFAQTripsMembersLoginFeedback
No Recent News for this Train
Other Trains in the News **new
Latest...
.
Fri Jun 13, 2014 (02:32PM)
⇐ Return Journey: Train# 18047

18048/Amaravati Express

Jun 17 2014 (7:53PM)
Change Departure Station:
Change Arrival Station:
Post a Train Travel TipPost a Train Travel Tip **new
Post a Comment/Question/Picture/VideoPost a Comment/Question/Picture/Video
Pantry/Catering
✕ NO Pantry Car
✓ Catering Avbl
RSA - Rake Sharing
Rake/Coach Composition
ENG, VPH, SLR, GEN, GEN, A1, B1,B2 S9 to S1, GEN, SLR;;,; Extra 3A attached as B2. Ref:PNR Entry#631947
Loco
VSG to GNT: GY WDM/G3A Twins. GNT to HWH: LGD WAP4.
News    PNR    Forum    Time-Table    Availability    Fare Chart    Map    Arr/Dep History    Trips    Gallery    ΣChains    X/O    Timeline    
Travel Time: 7h 43m    9 halts    Distance: 341 km    Avg Speed: 44 km/hr
Type: Mail/Express
Zone: SER/South Eastern
Departs @ 07:10 (Avg on time)
Platform# 1
S T TF 
Vasco-da-Gama/VSG 
Arrives @ 14:53 (Avg 11m late)
Platform# 4
S T TF 
Hospet Junction/HPT 

9 halts. 53 intermediate Stations between Vasco-da-Gama and Hospet Junction

Show ALL intermediate Stations  Show Old Time-Table

#CodeStation NameX/OArrivesAvgDepartsAvgHaltPFDay#KmSpeedElevZoneAddress
1VSG»Vasco-da-Gama (3)»  -07:10+0110.0408mSWRVasco-Da-Gama 403801, Goa
2MAOMadgaon Junction (3)07:45+607:50+75m--123.411311mKRMadgaon 403601, Goa
3SVMKudchade (2)  07:58+1808:00+192m--138.45512mSWRCurchorem, Goa
4QLMKulem (2)  08:20+2208:30+2210m--156.83175mSWRSouth Goa Distt., Goa
5CLRCastle Rock (3)X  09:20+3109:25+315m1183.039585mSWRCastlerock, Karnataka
6LDLonda Junction (3)O  10:03+2510:05+262m11107.545643mSWRLonda, Karnataka
7DWRDharwad (4)11:39+1011:40+161m--1178.030737mSWRDharwad 580001, Karnataka
8UBLHubli Junction (5)  12:20+212:30+910m--1198.060640mSWRHubli - 580020, Karnataka
9GDGGadag Junction (3)  13:28+1213:30+122m--1255.875655mSWRGadag GDG jn pnts. UBL/BAY/SUR, Karnataka
10KBLKoppal (1)14:16+1314:17+151m11313.246526mSWRKoppal, Karnataka
11HPT•Hospet Junction (3)•  14:53+1114:55+112m41341.157472mSWRHospet, Karnataka
12TNGLToranagallu (3)15:29+915:30+91m--1373.437473mSWRToranagallu, Karnataka
13BAYBellary Junction (4)  16:23-216:25+42m31405.967458mSWRBellary-583101, Karnataka
14GTLGuntakal Junction (6)17:10+1417:25+2715m--1455.851453mSCRGuntakal. Tel: 08552-227131/32, Andhra Pradesh
15MKRMaddikera (2)  17:39+3217:40+321m--1467.658481mSCRPin: 518385, Andhra Pradesh
16DHNEDhone Junction (3)  18:38+4018:40+462m--1524.267425mSCR518222, Andhra Pradesh
17BMHBetamcherla (2)19:12+3419:13+331m--1560.036425mSCRBetamcherla, Andhra Pradesh
18NDLNandyal (3)  20:20+2220:25+255m11600.364216mSCRPhone Number : 9247019958, Andhra Pradesh
19GIDGiddalur (2)X  21:15+3021:16+311m--1653.674269mSCRGiddalur ph.no 08405-242003, Andhra Pradesh
20CBMCumbum (1)  21:43+3721:45+382m11687.054199mSCRprakasham dist, Andhra Pradesh
21MRKMarkapur Road (2)X  22:14+3422:15+391m--1712.949156mSCRmarkapur road ph.no 08596-222028, Andhra Pradesh
22DKDDonakonda (3)  22:45+3722:46+391m11737.255154mSCRPhone:08408-272037, Andhra Pradesh
23VKNVinukonda (1)X  23:27+3123:28+311m11774.55495mSCRVinukonda, Andhra Pradesh
24NRTNarasaraopet (3)  00:10+2200:11+231m--2812.03074mSCRNarsaraopet ph.no 08647-223131, Andhra Pradesh
25GNTGuntur Junction (7)X  01:40-302:00+120m12857.13837mSCRGuntur, Andhra Pradesh
26BZAVijayawada Junction (10)  02:50+1103:00+1310m52889.07724mSCRVijayawada 520001, Andhra Pradesh
27EEEluru (3)X  03:46+3203:47+321m22948.49219mSCREluru Ph.no. 08812 226401., Andhra Pradesh
28TDDTadepalligudem (3)04:18+3304:19+341m22996.14918mSCRTadepalligudem, Andhra Pradesh
29RJYRajahmundry (3)  05:11+2605:13+262m321038.37923mSCRRajahmundry ph.no. 0883-2420541, Andhra Pradesh
30SLOSamalkot Junction (3)  05:51+2705:52+271m121088.55918mSCRSamalkot, Andhra Pradesh
31DVDDuvvada (4)  08:07+708:08+81m--21221.75346mECoRVishakhapatnam District, Andhra Pradesh
32SCMNSimhachalam North (5)XO08:20-08:25-5m--21232.35220mECoRVishakhapatnam, Andhra Pradesh
33VZMVizianagaram Junction (5)  09:25+1009:40+915m--21283.98363mECoRVizianagaram, Andhra Pradesh
34CHESrikakulam Road (4)XO  10:30+910:32+102m--21353.56634mECoRsrikakulam road ph .no. 08942-287222, Andhra Pradesh
35PSAPalasa (3)  11:38+411:40+72m--21426.48131mECoRKasibugga, Andhra Pradesh
36BAMBrahmapur (3)  12:35+1312:37+142m221500.87527mECoRBerhampur, Odisha
37KURKhurda Road Junction (7)X  14:35+814:50+815m121647.94525mECoRKhordha, Odisha
38BBSBhubaneswar (4)  15:15+1115:20+115m221666.86740mECoRBhubaneshwar, Odisha
39CTCCuttack Junction (5)  15:45+2815:50+295m121694.78528mECoRCuttack, Odisha
40JJKRJajpur Keonjhar Road (4)  16:41+3416:42+371m121766.74136mECoRJajpur, Odisha
41BHCBhadrak (4)X  17:46+1617:48+172m321810.48723mECoRBhadrak, Odisha
42BLSBalasore (4)X  18:31+3018:33+302m321872.87319mSERBalasore, Odisha
43KGPKharagpur Junction (10)X  20:08+2220:23+2215m621988.97542mSERKharagpur, West Bengal
44SRCKolkata Santragachi Junction (6)  21:49+1421:50+101m522096.5137mSERDist: Howrah - 711104, West Bengal
45HWHKolkata Howrah Junction (23)  22:25+25-2022103.9-10mERHowrah 711101, West Bengal
Scroll to Top
Scroll to Bottom